createdAt,value
2018-07-08T00:01:35.897Z,17.40
2018-07-08T00:04:07.724Z,17.50
2018-07-08T00:06:36.293Z,17.30
2018-07-08T00:09:05.908Z,17.40
2018-07-08T00:11:34.529Z,17.30
2018-07-08T00:14:05.053Z,17.30
2018-07-08T00:16:33.587Z,17.20
2018-07-08T00:19:02.163Z,16.90
2018-07-08T00:21:30.690Z,16.80
2018-07-08T00:23:59.171Z,16.70
2018-07-08T00:26:27.692Z,16.70
2018-07-08T00:28:56.214Z,16.80
2018-07-08T00:31:24.708Z,16.70
2018-07-08T00:33:53.222Z,16.60
2018-07-08T00:36:21.798Z,16.60
2018-07-08T00:38:50.330Z,16.60
2018-07-08T00:41:18.865Z,16.40
2018-07-08T00:43:47.343Z,16.40
2018-07-08T00:46:15.876Z,16.30
2018-07-08T00:48:44.415Z,16.20
2018-07-08T00:51:12.913Z,16.10
2018-07-08T00:53:41.677Z,15.90
2018-07-08T00:56:10.203Z,15.70
2018-07-08T00:58:40.252Z,15.50
2018-07-08T01:01:08.860Z,15.40
2018-07-08T01:03:37.421Z,15.30
2018-07-08T01:06:06.798Z,15.30
2018-07-08T01:08:35.362Z,15.20
2018-07-08T01:11:03.922Z,15.00
2018-07-08T01:13:32.426Z,15.30
2018-07-08T01:16:00.933Z,15.30
2018-07-08T01:18:29.452Z,15.50
2018-07-08T01:20:57.959Z,15.70
2018-07-08T01:23:26.466Z,15.50
2018-07-08T01:26:05.702Z,15.40
2018-07-08T01:28:34.171Z,15.30
2018-07-08T01:31:02.681Z,15.40
2018-07-08T01:33:32.222Z,15.20
2018-07-08T01:36:01.217Z,15.00
2018-07-08T01:38:29.721Z,14.80
2018-07-08T01:40:58.479Z,14.80
2018-07-08T01:43:27.352Z,14.60
2018-07-08T01:45:55.844Z,14.50
2018-07-08T01:48:24.398Z,14.40
2018-07-08T01:50:52.905Z,14.30
2018-07-08T01:53:21.462Z,14.20
2018-07-08T01:55:50.075Z,14.10
2018-07-08T01:58:18.577Z,14.00
2018-07-08T02:00:47.401Z,13.90
2018-07-08T02:03:16.325Z,13.90
2018-07-08T02:05:44.830Z,13.80
2018-07-08T02:08:13.322Z,13.80
2018-07-08T02:10:41.945Z,13.60
2018-07-08T02:13:10.468Z,13.60
2018-07-08T02:15:38.944Z,13.60
2018-07-08T02:18:08.746Z,13.50
2018-07-08T02:20:37.288Z,13.40
2018-07-08T02:23:05.890Z,13.40
2018-07-08T02:25:34.391Z,13.40
2018-07-08T02:28:03.846Z,13.30
2018-07-08T02:30:32.392Z,13.30
2018-07-08T02:33:00.968Z,13.20
2018-07-08T02:37:58.144Z,13.10
2018-07-08T02:40:27.279Z,13.10
2018-07-08T02:42:55.776Z,13.10
2018-07-08T02:45:25.112Z,13.10
2018-07-08T02:47:53.728Z,13.00
2018-07-08T02:50:22.280Z,13.00
2018-07-08T02:52:50.782Z,13.00
2018-07-08T02:55:19.277Z,12.90
2018-07-08T02:57:48.028Z,12.90
2018-07-08T03:00:16.536Z,12.80
2018-07-08T03:02:45.037Z,12.80
2018-07-08T03:05:13.544Z,12.80
2018-07-08T03:07:42.063Z,12.80
2018-07-08T03:10:10.573Z,12.80
2018-07-08T03:12:39.031Z,12.80
2018-07-08T03:15:08.430Z,12.80
2018-07-08T03:17:36.979Z,12.70
2018-07-08T03:20:05.516Z,12.70
2018-07-08T03:22:33.983Z,12.60
2018-07-08T03:25:02.505Z,12.60
2018-07-08T03:27:31.084Z,12.60
2018-07-08T03:29:59.592Z,12.60
2018-07-08T03:32:28.107Z,12.50
2018-07-08T03:34:56.592Z,12.60
2018-07-08T03:37:25.098Z,12.60
2018-07-08T03:39:53.708Z,12.60
2018-07-08T03:42:22.192Z,12.70
2018-07-08T03:44:50.658Z,12.80
2018-07-08T03:47:19.174Z,12.80
2018-07-08T03:49:47.682Z,12.70
2018-07-08T03:52:16.153Z,12.80
2018-07-08T03:54:44.666Z,12.80
2018-07-08T03:57:13.219Z,12.80
2018-07-08T03:59:41.696Z,12.80
2018-07-08T04:02:10.192Z,12.90
2018-07-08T04:04:38.928Z,13.10
2018-07-08T04:07:07.408Z,13.20
2018-07-08T04:09:35.886Z,13.70
2018-07-08T04:12:05.044Z,14.00
2018-07-08T04:14:33.515Z,14.40
2018-07-08T04:17:02.070Z,14.50
2018-07-08T04:19:30.564Z,14.50
2018-07-08T04:21:59.060Z,14.50
2018-07-08T04:24:27.571Z,14.60
2018-07-08T04:26:56.077Z,14.60
2018-07-08T04:29:24.590Z,14.60
2018-07-08T04:31:53.073Z,14.70
2018-07-08T04:34:21.550Z,14.70
2018-07-08T04:36:50.067Z,14.90
2018-07-08T04:39:18.539Z,15.00
2018-07-08T04:41:47.097Z,15.10
2018-07-08T04:44:15.657Z,15.30
2018-07-08T04:46:44.201Z,15.30
2018-07-08T04:49:12.700Z,15.50
2018-07-08T04:51:41.211Z,15.60
2018-07-08T04:54:09.720Z,15.60
2018-07-08T04:56:38.240Z,15.70
2018-07-08T04:59:06.791Z,15.80
2018-07-08T05:01:35.303Z,15.60
2018-07-08T05:04:03.822Z,15.70
2018-07-08T05:06:32.460Z,15.70
2018-07-08T05:09:00.924Z,15.70
2018-07-08T05:11:29.431Z,15.70
2018-07-08T05:13:57.893Z,15.70
2018-07-08T05:16:26.448Z,15.60
2018-07-08T05:18:54.958Z,15.60
2018-07-08T05:21:23.500Z,15.60
2018-07-08T05:23:52.022Z,15.50
2018-07-08T05:26:20.532Z,15.40
2018-07-08T05:28:48.999Z,15.40
2018-07-08T05:31:17.528Z,15.40
2018-07-08T05:33:46.087Z,15.30
2018-07-08T05:36:14.559Z,15.30
2018-07-08T05:38:43.071Z,15.40
2018-07-08T05:41:11.555Z,15.50
2018-07-08T05:43:40.089Z,15.60
2018-07-08T05:46:08.602Z,15.70
2018-07-08T05:48:37.217Z,16.00
2018-07-08T05:51:05.769Z,16.30
2018-07-08T05:53:34.923Z,16.70
2018-07-08T05:56:03.434Z,16.80
2018-07-08T05:58:31.927Z,16.80
2018-07-08T06:01:00.448Z,16.90
2018-07-08T06:03:28.929Z,17.00
2018-07-08T06:12:44.099Z,17.20
2018-07-08T06:15:12.630Z,17.70
2018-07-08T06:17:41.135Z,18.10
2018-07-08T06:20:11.415Z,18.10
2018-07-08T06:22:40.130Z,18.20
2018-07-08T06:25:08.812Z,18.50
2018-07-08T06:27:37.362Z,18.30
2018-07-08T06:30:06.249Z,18.00
2018-07-08T06:32:34.757Z,18.10
2018-07-08T06:35:03.298Z,18.40
2018-07-08T06:37:31.821Z,18.90
2018-07-08T06:40:00.373Z,19.80
2018-07-08T06:42:28.942Z,20.60
2018-07-08T06:44:58.304Z,20.90
2018-07-08T06:47:26.811Z,20.80
2018-07-08T06:49:55.364Z,20.50
2018-07-08T06:52:23.855Z,20.10
2018-07-08T06:54:52.386Z,20.30
2018-07-08T06:57:20.944Z,20.30
2018-07-08T06:59:49.609Z,19.50
2018-07-08T07:02:18.107Z,19.60
2018-07-08T07:04:46.690Z,20.00
2018-07-08T07:07:15.224Z,20.20
2018-07-08T07:09:43.746Z,20.40
2018-07-08T07:12:12.332Z,21.10
2018-07-08T07:14:40.885Z,20.80
2018-07-08T07:17:09.408Z,20.60
2018-07-08T07:19:37.944Z,20.90
2018-07-08T07:22:06.599Z,21.00
2018-07-08T07:24:35.110Z,20.70
2018-07-08T07:27:03.643Z,20.50
2018-07-08T07:29:32.154Z,20.80
2018-07-08T07:32:00.669Z,21.00
2018-07-08T07:34:29.217Z,21.40
2018-07-08T07:36:57.812Z,21.50
2018-07-08T07:39:26.328Z,22.00
2018-07-08T07:41:54.931Z,22.90
2018-07-08T07:44:23.515Z,23.40
2018-07-08T07:46:52.099Z,23.50
2018-07-08T07:49:20.665Z,23.10
2018-07-08T07:51:49.209Z,23.20
2018-07-08T07:54:17.747Z,22.90
2018-07-08T07:56:46.346Z,23.50
2018-07-08T07:59:15.365Z,24.50
2018-07-08T08:01:43.876Z,24.50
2018-07-08T08:04:12.448Z,24.00
2018-07-08T08:06:40.977Z,24.30
2018-07-08T08:09:09.532Z,24.40
2018-07-08T08:11:38.826Z,24.60
2018-07-08T08:14:07.405Z,24.90
2018-07-08T08:16:35.986Z,25.80
2018-07-08T08:21:32.797Z,25.80
2018-07-08T08:24:01.340Z,26.60
2018-07-08T08:26:30.245Z,25.80
2018-07-08T08:28:58.850Z,26.00
2018-07-08T08:31:27.316Z,25.70
2018-07-08T08:35:19.924Z,26.70
2018-07-08T08:37:52.560Z,26.80
2018-07-08T08:40:22.479Z,27.30
2018-07-08T08:42:51.495Z,27.00
2018-07-08T08:45:21.072Z,26.20
2018-07-08T08:47:51.197Z,25.80
2018-07-08T08:50:19.700Z,26.50
2018-07-08T08:52:48.188Z,26.40
2018-07-08T08:55:16.752Z,26.20
2018-07-08T08:57:45.201Z,26.60
2018-07-08T09:00:16.478Z,27.10
2018-07-08T09:02:45.041Z,26.90
2018-07-08T09:05:13.523Z,26.10
2018-07-08T09:07:42.054Z,26.80
2018-07-08T09:10:10.617Z,27.70
2018-07-08T09:12:39.159Z,27.80
2018-07-08T09:15:08.198Z,27.80
2018-07-08T09:17:36.716Z,26.80
2018-07-08T09:20:05.390Z,26.90
2018-07-08T09:22:33.878Z,27.10
2018-07-08T09:25:02.374Z,27.50
2018-07-08T09:27:30.991Z,26.90
2018-07-08T09:29:59.449Z,26.60
2018-07-08T09:32:29.000Z,27.10
2018-07-08T09:34:57.470Z,27.50
2018-07-08T09:37:26.006Z,27.60
2018-07-08T09:39:54.548Z,27.90
2018-07-08T09:42:23.040Z,27.50
2018-07-08T09:44:51.531Z,27.80
2018-07-08T09:47:20.063Z,27.80
2018-07-08T09:49:48.575Z,27.70
2018-07-08T09:52:17.028Z,27.80
2018-07-08T09:54:45.579Z,29.30
2018-07-08T09:57:14.192Z,29.20
2018-07-08T09:59:42.676Z,29.20
2018-07-08T10:02:11.176Z,28.90
2018-07-08T10:04:39.740Z,28.60
2018-07-08T10:07:08.263Z,29.50
2018-07-08T10:09:36.770Z,29.20
2018-07-08T10:12:05.232Z,28.60
2018-07-08T10:14:33.720Z,29.00
2018-07-08T10:17:02.290Z,29.30
2018-07-08T10:19:30.809Z,30.30
2018-07-08T10:21:59.235Z,30.50
2018-07-08T10:24:27.756Z,30.80
2018-07-08T10:27:07.131Z,30.80
2018-07-08T10:29:35.646Z,31.10
2018-07-08T10:32:04.171Z,31.10
2018-07-08T10:34:32.959Z,31.10
2018-07-08T10:37:01.460Z,29.80
2018-07-08T10:39:29.950Z,30.90
2018-07-08T10:41:58.472Z,31.30
2018-07-08T10:44:26.941Z,31.20
2018-07-08T10:46:55.534Z,30.40
2018-07-08T10:49:25.160Z,30.00
2018-07-08T10:51:53.665Z,30.40
2018-07-08T10:54:22.183Z,31.50
2018-07-08T10:56:50.684Z,32.20
2018-07-08T10:59:19.400Z,31.30
2018-07-08T11:01:47.975Z,30.90
2018-07-08T11:04:16.487Z,31.10
2018-07-08T11:06:44.984Z,31.70
2018-07-08T11:09:13.459Z,30.20
2018-07-08T11:11:41.942Z,31.10
2018-07-08T11:14:10.433Z,30.00
2018-07-08T11:16:39.445Z,28.50
2018-07-08T11:19:08.942Z,27.50
2018-07-08T11:21:37.461Z,29.20
2018-07-08T11:24:07.164Z,30.50
2018-07-08T11:26:35.728Z,31.00
2018-07-08T11:29:05.059Z,31.10
2018-07-08T11:31:33.604Z,31.50
2018-07-08T11:34:02.104Z,31.80
2018-07-08T11:36:30.606Z,31.30
2018-07-08T11:38:59.128Z,32.00
2018-07-08T11:41:27.657Z,30.80
2018-07-08T11:43:56.856Z,30.50
2018-07-08T11:46:25.325Z,31.70
2018-07-08T11:48:53.829Z,32.50
2018-07-08T11:51:23.157Z,32.80
2018-07-08T11:53:52.663Z,33.00
2018-07-08T11:56:21.151Z,33.20
2018-07-08T11:58:49.884Z,32.90
2018-07-08T12:01:18.378Z,32.50
2018-07-08T12:03:46.889Z,32.60
2018-07-08T12:06:15.670Z,32.00
2018-07-08T12:08:44.235Z,32.60
2018-07-08T12:11:12.733Z,33.20
2018-07-08T12:13:41.420Z,33.40
2018-07-08T12:16:10.661Z,33.10
2018-07-08T12:18:39.151Z,33.10
2018-07-08T12:21:07.677Z,33.60
2018-07-08T12:23:42.684Z,32.60
2018-07-08T12:26:11.919Z,32.20
2018-07-08T12:28:40.707Z,32.90
2018-07-08T12:31:09.303Z,34.10
2018-07-08T12:33:37.817Z,33.70
2018-07-08T12:36:07.472Z,32.40
2018-07-08T12:38:36.072Z,31.80
2018-07-08T12:41:04.633Z,31.40
2018-07-08T12:43:33.259Z,30.60
2018-07-08T12:46:01.936Z,30.20
2018-07-08T12:48:30.485Z,30.60
2018-07-08T12:50:58.978Z,29.80
2018-07-08T12:53:27.780Z,29.10
2018-07-08T12:55:56.363Z,29.60
2018-07-08T12:58:24.887Z,32.00
2018-07-08T13:00:53.392Z,33.80
2018-07-08T13:03:22.051Z,34.20
2018-07-08T13:05:53.143Z,31.40
2018-07-08T13:08:21.734Z,32.30
2018-07-08T13:10:50.336Z,33.60
2018-07-08T13:13:18.876Z,32.00
2018-07-08T13:15:47.408Z,32.60
2018-07-08T13:18:16.661Z,31.30
2018-07-08T13:20:45.194Z,31.80
2018-07-08T13:23:13.643Z,33.20
2018-07-08T13:25:42.913Z,33.30
2018-07-08T13:28:11.524Z,32.50
2018-07-08T13:30:40.056Z,32.60
2018-07-08T13:33:08.610Z,32.40
2018-07-08T13:35:37.112Z,32.50
2018-07-08T13:38:05.770Z,31.40
2018-07-08T13:40:34.382Z,32.20
2018-07-08T13:43:02.874Z,32.70
2018-07-08T13:45:31.325Z,31.50
2018-07-08T13:47:59.865Z,33.10
2018-07-08T13:50:28.545Z,33.20
2018-07-08T13:52:57.302Z,32.20
2018-07-08T13:55:25.854Z,32.80
2018-07-08T13:57:54.341Z,33.30
2018-07-08T14:00:22.896Z,34.40
2018-07-08T14:02:51.495Z,34.20
2018-07-08T14:05:21.026Z,33.60
2018-07-08T14:07:49.599Z,32.80
2018-07-08T14:10:18.137Z,32.50
2018-07-08T14:12:46.655Z,31.90
2018-07-08T14:15:15.265Z,32.50
2018-07-08T14:17:43.817Z,33.30
2018-07-08T14:22:40.633Z,31.90
2018-07-08T14:25:09.251Z,31.10
2018-07-08T14:27:37.774Z,30.30
2018-07-08T14:30:06.971Z,31.20
2018-07-08T14:32:35.535Z,31.30
2018-07-08T14:35:04.484Z,31.20
2018-07-08T14:37:33.147Z,31.90
2018-07-08T14:40:01.757Z,33.00
2018-07-08T14:42:30.404Z,31.80
2018-07-08T14:44:59.178Z,31.20
2018-07-08T14:47:27.712Z,31.10
2018-07-08T14:49:56.302Z,31.30
2018-07-08T14:52:24.907Z,31.70
2018-07-08T14:54:53.596Z,32.60
2018-07-08T14:57:22.170Z,33.10
2018-07-08T14:59:50.833Z,32.70
2018-07-08T15:02:19.428Z,32.40
2018-07-08T15:04:48.195Z,32.90
2018-07-08T15:07:16.833Z,32.30
2018-07-08T15:12:13.687Z,31.50
2018-07-08T15:14:42.994Z,31.90
2018-07-08T15:17:11.595Z,31.80
2018-07-08T15:19:40.129Z,30.90
2018-07-08T15:22:09.004Z,30.30
2018-07-08T15:24:37.566Z,31.10
2018-07-08T15:27:06.204Z,31.90
2018-07-08T15:29:34.776Z,32.40
2018-07-08T15:32:03.579Z,32.60
2018-07-08T15:37:00.641Z,32.10
2018-07-08T15:39:29.558Z,31.40
2018-07-08T15:41:58.108Z,30.90
2018-07-08T15:44:26.715Z,29.80
2018-07-08T15:46:55.788Z,29.30
2018-07-08T15:49:24.480Z,30.20
2018-07-08T15:51:53.152Z,30.80
2018-07-08T15:54:21.874Z,31.30
2018-07-08T15:56:50.804Z,32.00
2018-07-08T15:59:19.885Z,32.30
2018-07-08T16:01:49.328Z,32.50
2018-07-08T16:04:18.195Z,31.90
2018-07-08T16:06:46.744Z,30.90
2018-07-08T16:09:15.265Z,30.60
2018-07-08T16:11:44.551Z,31.00
2018-07-08T16:14:13.118Z,31.00
2018-07-08T16:16:41.807Z,30.90
2018-07-08T16:19:10.329Z,31.00
2018-07-08T16:21:38.895Z,30.70
2018-07-08T16:24:07.567Z,29.90
2018-07-08T16:26:36.580Z,30.20
2018-07-08T16:29:05.181Z,30.40
2018-07-08T16:31:33.788Z,30.50
2018-07-08T16:34:02.420Z,30.00
2018-07-08T16:36:31.028Z,29.80
2018-07-08T16:38:59.623Z,29.20
2018-07-08T16:41:28.182Z,28.60
2018-07-08T16:43:57.288Z,28.20
2018-07-08T16:46:25.859Z,27.90
2018-07-08T16:48:54.404Z,28.60
2018-07-08T16:53:51.297Z,29.20
2018-07-08T16:56:20.064Z,29.30
2018-07-08T16:58:48.621Z,29.50
2018-07-08T17:01:17.434Z,29.20
2018-07-08T17:03:46.865Z,29.00
2018-07-08T17:06:15.504Z,28.60
2018-07-08T17:08:44.045Z,27.90
2018-07-08T17:11:12.616Z,27.40
2018-07-08T17:13:41.177Z,27.20
2018-07-08T17:16:09.720Z,27.30
2018-07-08T17:18:38.638Z,26.80
2018-07-08T17:21:07.197Z,26.50
2018-07-08T17:23:35.842Z,26.20
2018-07-08T17:26:04.449Z,26.00
2018-07-08T17:28:33.052Z,26.10
2018-07-08T17:31:01.771Z,26.00
2018-07-08T17:33:30.404Z,25.80
2018-07-08T17:35:58.978Z,25.70
2018-07-08T17:38:28.379Z,25.70
2018-07-08T17:40:57.050Z,25.80
2018-07-08T17:45:53.939Z,25.70
2018-07-08T17:48:22.520Z,25.60
2018-07-08T17:50:51.095Z,25.50
2018-07-08T17:53:19.701Z,25.50
2018-07-08T17:55:48.885Z,25.40
2018-07-08T17:58:17.453Z,25.40
2018-07-08T18:00:46.175Z,25.20
2018-07-08T18:03:15.753Z,25.20
2018-07-08T18:05:44.299Z,25.20
2018-07-08T18:08:12.841Z,25.10
2018-07-08T18:10:41.408Z,25.10
2018-07-08T18:13:10.217Z,25.10
2018-07-08T18:15:39.557Z,25.00
2018-07-08T18:18:08.500Z,25.00
2018-07-08T18:20:37.395Z,24.90
2018-07-08T18:23:05.960Z,24.90
2018-07-08T18:25:34.534Z,24.80
2018-07-08T18:28:03.041Z,24.80
2018-07-08T18:30:33.400Z,24.70
2018-07-08T18:33:02.033Z,24.60
2018-07-08T18:35:30.628Z,24.50
2018-07-08T18:37:59.221Z,24.40
2018-07-08T18:40:27.803Z,24.40
2018-07-08T18:42:56.589Z,24.40
2018-07-08T18:45:25.110Z,24.30
2018-07-08T18:47:53.688Z,24.20
2018-07-08T18:50:22.206Z,24.10
2018-07-08T18:52:50.908Z,24.00
2018-07-08T18:55:19.528Z,24.00
2018-07-08T18:57:48.063Z,23.80
2018-07-08T19:00:16.656Z,23.70
2018-07-08T19:02:45.171Z,23.60
2018-07-08T19:05:13.692Z,23.50
2018-07-08T19:10:10.641Z,23.30
2018-07-08T19:12:40.475Z,23.10
2018-07-08T19:15:09.376Z,23.10
2018-07-08T19:17:37.878Z,23.00
2018-07-08T19:20:06.584Z,22.90
2018-07-08T19:22:35.226Z,22.80
2018-07-08T19:25:03.881Z,22.80
2018-07-08T19:27:32.552Z,22.70
2018-07-08T19:30:01.208Z,22.60
2018-07-08T19:32:29.687Z,22.50
2018-07-08T19:34:59.313Z,22.40
2018-07-08T19:37:28.251Z,22.30
2018-07-08T19:39:56.876Z,22.20
2018-07-08T19:42:25.604Z,22.20
2018-07-08T19:44:55.659Z,22.00
2018-07-08T19:47:24.231Z,21.90
2018-07-08T19:49:52.818Z,21.80
2018-07-08T19:52:21.351Z,21.80
2018-07-08T19:54:49.989Z,21.60
2018-07-08T19:57:18.625Z,21.50
2018-07-08T19:59:47.778Z,21.40
2018-07-08T20:02:17.088Z,21.40
2018-07-08T20:04:46.164Z,21.30
2018-07-08T20:07:15.128Z,21.10
2018-07-08T20:09:44.333Z,21.00
2018-07-08T20:12:12.920Z,20.90
2018-07-08T20:14:41.565Z,20.90
2018-07-08T20:17:10.256Z,20.80
2018-07-08T20:19:38.860Z,20.80
2018-07-08T20:22:07.809Z,20.80
2018-07-08T20:27:05.312Z,20.60
2018-07-08T20:29:34.182Z,20.30
2018-07-08T20:34:31.799Z,20.30
2018-07-08T20:37:00.371Z,20.30
2018-07-08T20:39:29.740Z,20.10
2018-07-08T20:41:58.322Z,20.10
2018-07-08T20:44:26.881Z,20.00
2018-07-08T20:46:55.532Z,19.90
2018-07-08T20:49:24.739Z,19.90
2018-07-08T20:51:53.978Z,19.80
2018-07-08T20:54:22.576Z,19.60
2018-07-08T20:56:51.197Z,19.40
2018-07-08T20:59:19.816Z,19.40
2018-07-08T21:01:48.336Z,19.60
2018-07-08T21:04:17.718Z,19.60
2018-07-08T21:06:47.266Z,19.50
2018-07-08T21:09:15.969Z,19.50
2018-07-08T21:11:44.471Z,19.40
2018-07-08T21:14:13.030Z,19.40
2018-07-08T21:16:42.998Z,19.40
2018-07-08T21:19:11.506Z,19.30
2018-07-08T21:21:41.073Z,19.20
2018-07-08T21:24:09.622Z,19.10
2018-07-08T21:26:38.124Z,19.00
2018-07-08T21:29:06.799Z,18.90
2018-07-08T21:31:35.339Z,18.50
2018-07-08T21:34:03.907Z,18.30
2018-07-08T21:36:32.468Z,18.10
2018-07-08T21:39:01.080Z,17.80
2018-07-08T21:41:29.676Z,17.50
2018-07-08T21:43:58.225Z,17.40
2018-07-08T21:46:26.703Z,17.20
2018-07-08T21:48:55.270Z,17.10
2018-07-08T21:51:23.854Z,17.10
2018-07-08T21:53:53.617Z,17.30
2018-07-08T21:56:22.140Z,17.30
2018-07-08T21:58:50.779Z,17.30
2018-07-08T22:01:22.287Z,17.30
2018-07-08T22:03:51.414Z,17.30
2018-07-08T22:06:20.381Z,17.10
2018-07-08T22:08:48.897Z,17.00
2018-07-08T22:11:17.536Z,17.00
2018-07-08T22:13:46.038Z,17.10
2018-07-08T22:16:14.570Z,17.10
2018-07-08T22:18:43.151Z,17.00
2018-07-08T22:21:11.662Z,17.10
2018-07-08T22:23:40.196Z,17.30
2018-07-08T22:26:08.733Z,17.20
2018-07-08T22:28:37.210Z,17.20
2018-07-08T22:31:05.794Z,17.00
2018-07-08T22:33:34.324Z,16.90
2018-07-08T22:36:02.838Z,16.90
2018-07-08T22:38:31.359Z,16.70
2018-07-08T22:40:59.898Z,16.60
2018-07-08T22:43:28.396Z,16.40
2018-07-08T22:45:56.936Z,16.30
2018-07-08T22:48:25.478Z,16.10
2018-07-08T22:50:53.988Z,16.00
2018-07-08T22:53:22.499Z,15.90
2018-07-08T22:55:51.069Z,15.90
2018-07-08T22:58:19.573Z,15.70
2018-07-08T23:00:59.392Z,15.60
2018-07-08T23:03:54.727Z,15.60
2018-07-08T23:06:23.252Z,15.40
2018-07-08T23:08:52.346Z,15.20
2018-07-08T23:11:21.753Z,15.00
2018-07-08T23:13:51.204Z,14.80
2018-07-08T23:16:21.172Z,14.70
2018-07-08T23:18:49.792Z,14.60
2018-07-08T23:21:18.316Z,14.50
2018-07-08T23:23:46.860Z,14.40
2018-07-08T23:26:15.434Z,14.30
2018-07-08T23:28:43.925Z,14.20
2018-07-08T23:31:12.820Z,14.20
2018-07-08T23:33:41.289Z,14.10
2018-07-08T23:36:10.697Z,14.20
2018-07-08T23:38:40.020Z,14.10
2018-07-08T23:41:09.853Z,14.10
2018-07-08T23:43:38.383Z,14.00
2018-07-08T23:46:06.903Z,14.00
2018-07-08T23:48:35.765Z,14.00
2018-07-08T23:51:04.296Z,13.90
2018-07-08T23:53:32.840Z,13.90
2018-07-08T23:56:01.326Z,13.80
2018-07-08T23:58:31.259Z,13.70
